Time;durP1;ratioP1;P1;durP2;ratioP2;P2;SDS_P1;SDS_P2;PMS_P1;PMS_P2;Temp;Humidity;BMP_temperature;BMP_pressure;BME280_temperature;BME280_humidity;BME280_pressure;Samples;Min_cycle;Max_cycle;Signal;HPM_P1;HPM_P2
2023/01/21 00:01:57;;;;;;;42.97;16.05;;;0.20;99.90;;;;;;4190383;28;20032;-79
2023/01/21 00:04:00;;;;;;;38.67;14.70;;;-0.60;99.90;;;;;;4192052;28;20451;-79
2023/01/21 00:06:02;;;;;;;31.90;13.52;;;-0.40;99.90;;;;;;4186620;28;20088;-79
2023/01/21 00:08:05;;;;;;;32.15;13.00;;;-0.40;99.90;;;;;;4175297;28;20049;-79
2023/01/21 00:10:06;;;;;;;40.50;15.32;;;-0.40;99.90;;;;;;4185678;28;20045;-79
2023/01/21 00:12:07;;;;;;;29.85;13.07;;;-0.50;99.90;;;;;;4182773;28;20051;-79
2023/01/21 00:14:08;;;;;;;38.42;13.27;;;-0.50;99.90;;;;;;4192312;28;20041;-79
2023/01/21 00:16:12;;;;;;;33.50;13.02;;;-0.70;99.90;;;;;;4175681;28;20088;-79
2023/01/21 00:18:13;;;;;;;31.70;12.40;;;0.80;99.90;;;;;;4176898;28;20183;-79
2023/01/21 00:20:15;;;;;;;34.30;13.48;;;-0.60;99.90;;;;;;4163598;28;20107;-79
2023/01/21 00:22:17;;;;;;;37.55;13.88;;;-0.80;99.90;;;;;;4181939;28;20073;-79
2023/01/21 00:24:25;;;;;;;38.55;14.00;;;-0.60;99.90;;;;;;4192622;28;20393;-79
2023/01/21 00:26:27;;;;;;;34.08;14.10;;;-0.70;99.90;;;;;;4193525;28;20151;-79
2023/01/21 00:28:29;;;;;;;37.13;13.85;;;0.60;99.90;;;;;;4193435;28;20488;-79
2023/01/21 00:30:30;;;;;;;33.33;13.98;;;1.00;99.90;;;;;;4193246;28;20104;-79
2023/01/21 00:32:31;;;;;;;31.65;12.30;;;-0.80;99.90;;;;;;4176569;28;20057;-79
2023/01/21 00:34:34;;;;;;;34.40;13.23;;;0.80;99.90;;;;;;4176309;28;20041;-79
2023/01/21 00:36:36;;;;;;;31.95;12.93;;;-0.80;99.90;;;;;;4193600;28;20043;-79
2023/01/21 00:38:38;;;;;;;35.50;13.68;;;0.80;99.90;;;;;;4192078;28;20049;-79
2023/01/21 00:40:41;;;;;;;29.45;12.10;;;0.60;99.90;;;;;;4193785;28;20052;-79
2023/01/21 00:42:43;;;;;;;35.72;13.35;;;-0.80;99.90;;;;;;4193094;28;20052;-79
2023/01/21 00:44:45;;;;;;;37.97;14.25;;;-0.90;99.90;;;;;;4192291;28;20045;-79
2023/01/21 00:46:46;;;;;;;39.00;14.20;;;-0.80;99.90;;;;;;4190799;28;20044;-79
2023/01/21 00:48:48;;;;;;;36.03;14.20;;;0.70;99.90;;;;;;4192209;28;20128;-79
2023/01/21 00:50:57;;;;;;;34.80;12.88;;;-1.20;99.90;;;;;;4192744;28;20048;-79
2023/01/21 00:52:58;;;;;;;30.77;13.07;;;-0.80;99.90;;;;;;4191987;28;20061;-79
2023/01/21 00:54:59;;;;;;;35.22;13.13;;;-0.90;99.90;;;;;;4184763;28;20051;-79
2023/01/21 00:57:06;;;;;;;37.20;14.65;;;-0.90;99.90;;;;;;4192996;28;20044;-79
2023/01/21 00:59:07;;;;;;;35.80;14.15;;;-0.90;99.90;;;;;;4176420;28;20050;-79
2023/01/21 01:01:18;;;;;;;38.03;15.52;;;-1.00;99.90;;;;;;4173865;28;20075;-80
2023/01/21 01:03:21;;;;;;;38.30;15.07;;;-1.00;99.90;;;;;;4190863;28;20109;-80
2023/01/21 01:05:22;;;;;;;39.53;14.55;;;0.20;99.90;;;;;;4174921;28;20049;-79
2023/01/21 01:07:23;;;;;;;35.00;13.80;;;-1.10;99.90;;;;;;4186022;28;20037;-79
2023/01/21 01:09:31;;;;;;;37.40;14.50;;;0.20;99.90;;;;;;4191318;28;20092;-79
2023/01/21 01:11:38;;;;;;;33.97;13.33;;;-1.70;99.90;;;;;;4191610;28;20041;-79
2023/01/21 01:13:48;;;;;;;34.35;13.68;;;-2.00;99.90;;;;;;4193062;28;20330;-79
2023/01/21 01:15:51;;;;;;;36.05;14.07;;;-1.00;99.90;;;;;;4193484;28;20045;-81
2023/01/21 01:17:54;;;;;;;36.38;15.25;;;-0.90;99.90;;;;;;4175497;28;20500;-80
2023/01/21 01:19:56;;;;;;;38.55;15.02;;;0.10;99.90;;;;;;4191919;28;20041;-79
2023/01/21 01:21:57;;;;;;;37.17;14.75;;;-1.10;99.90;;;;;;4183543;28;20033;-79
2023/01/21 01:24:05;;;;;;;36.13;14.10;;;-0.90;99.90;;;;;;4165557;28;20123;-80
2023/01/21 01:26:10;;;;;;;37.75;14.98;;;-2.00;99.90;;;;;;4188927;28;20041;-80
2023/01/21 01:28:11;;;;;;;38.05;13.85;;;0.70;99.90;;;;;;4188085;28;20490;-80
2023/01/21 01:30:19;;;;;;;36.22;13.35;;;-1.20;99.90;;;;;;4158650;28;20057;-80
2023/01/21 01:32:40;;;;;;;38.42;14.48;;;-1.20;99.90;;;;;;4191695;28;20041;-80
2023/01/21 01:34:41;;;;;;;35.35;13.65;;;-1.50;99.90;;;;;;4193772;28;20052;-80
2023/01/21 01:36:42;;;;;;;35.83;14.40;;;0.60;99.90;;;;;;4178184;28;20136;-80
2023/01/21 01:38:53;;;;;;;35.88;15.05;;;-1.50;99.90;;;;;;4175989;28;20136;-80
2023/01/21 01:40:55;;;;;;;37.30;14.60;;;-1.30;99.90;;;;;;4194929;28;20071;-80
2023/01/21 01:42:57;;;;;;;35.55;13.52;;;-1.20;99.90;;;;;;4195189;28;20033;-80
2023/01/21 01:45:02;;;;;;;38.17;15.40;;;0.00;99.90;;;;;;4177357;28;20037;-80
2023/01/21 01:47:05;;;;;;;36.47;13.40;;;-1.20;99.90;;;;;;4176987;28;20049;-79
2023/01/21 01:49:20;;;;;;;34.25;13.73;;;-1.10;99.90;;;;;;4178828;28;20101;-79
2023/01/21 01:51:29;;;;;;;39.38;13.90;;;-1.10;99.90;;;;;;4178490;28;20052;-79
2023/01/21 01:53:31;;;;;;;36.42;15.57;;;-0.40;99.90;;;;;;4196211;28;20053;-79
2023/01/21 01:55:35;;;;;;;40.72;14.73;;;-0.10;99.90;;;;;;4194721;28;20091;-79
2023/01/21 01:57:42;;;;;;;36.83;14.10;;;-0.50;99.90;;;;;;4178776;28;20547;-78
2023/01/21 01:59:45;;;;;;;49.67;15.73;;;-2.00;99.90;;;;;;4195281;28;20051;-79
2023/01/21 02:01:59;;;;;;;37.20;14.25;;;-0.70;99.90;;;;;;4196847;28;20120;-80
2023/01/21 02:04:04;;;;;;;40.80;14.38;;;-1.20;99.90;;;;;;4196510;28;20093;-80
2023/01/21 02:06:07;;;;;;;32.85;12.82;;;-0.70;99.90;;;;;;4197565;28;20052;-81
2023/01/21 02:08:09;;;;;;;41.90;15.18;;;-1.30;99.90;;;;;;4179419;28;20052;-78
2023/01/21 02:10:18;;;;;;;35.53;13.20;;;-1.20;99.90;;;;;;4198385;28;20059;-79
2023/01/21 02:12:22;;;;;;;39.45;13.23;;;-1.20;99.90;;;;;;4197564;28;20040;-79
2023/01/21 02:14:25;;;;;;;36.97;14.10;;;-1.20;99.90;;;;;;4197375;28;20510;-79
2023/01/21 02:16:47;;;;;;;48.38;14.75;;;-2.10;99.90;;;;;;4195441;28;20056;-79
2023/01/21 02:19:19;;;;;;;35.22;14.05;;;-1.20;99.90;;;;;;4197011;28;20494;-80
2023/01/21 02:21:47;;;;;;;41.08;13.45;;;-2.40;99.90;;;;;;4197568;28;20055;-80
2023/01/21 02:24:14;;;;;;;38.50;14.40;;;-1.20;99.90;;;;;;4196657;28;20040;-80
2023/01/21 02:26:34;;;;;;;38.10;14.45;;;-2.00;99.90;;;;;;4154179;28;20121;-79
2023/01/21 02:29:06;;;;;;;38.65;13.52;;;0.00;99.90;;;;;;4194810;28;20045;-79
2023/01/21 02:31:25;;;;;;;32.95;14.23;;;-1.20;99.90;;;;;;4195574;28;20098;-80
2023/01/21 02:33:39;;;;;;;34.30;13.32;;;-1.20;99.90;;;;;;4181743;28;20033;-80
2023/01/21 02:36:22;;;;;;;33.20;13.38;;;-1.30;99.90;;;;;;4183312;28;20063;-79
2023/01/21 02:38:34;;;;;;;33.50;13.48;;;-1.20;99.90;;;;;;4179156;28;20129;-80
2023/01/21 02:40:38;;;;;;;38.28;13.57;;;-1.40;99.90;;;;;;4179171;28;20053;-80
2023/01/21 02:42:46;;;;;;;36.58;13.77;;;-0.90;99.90;;;;;;4189980;28;20041;-80
2023/01/21 02:45:04;;;;;;;37.70;15.20;;;-1.90;99.90;;;;;;4195619;28;20041;-80
2023/01/21 02:47:30;;;;;;;32.53;12.77;;;-1.40;99.90;;;;;;4195602;28;20511;-80
2023/01/21 02:49:42;;;;;;;34.55;13.93;;;-1.00;99.90;;;;;;4189606;28;20060;-80
2023/01/21 02:51:58;;;;;;;35.35;13.57;;;-1.20;99.90;;;;;;4195026;28;20052;-80
2023/01/21 02:54:11;;;;;;;40.28;15.75;;;-1.50;99.90;;;;;;4194364;28;20048;-80
2023/01/21 02:56:25;;;;;;;37.47;13.52;;;-1.50;99.90;;;;;;4194676;28;20083;-80
2023/01/21 02:58:41;;;;;;;36.63;13.68;;;-1.30;99.90;;;;;;4179324;28;20083;-80
2023/01/21 03:01:07;;;;;;;40.05;15.48;;;-0.70;99.90;;;;;;4196477;28;20055;-79
2023/01/21 03:03:42;;;;;;;39.28;13.68;;;-1.30;99.90;;;;;;4197078;28;20093;-79
2023/01/21 03:06:20;;;;;;;38.85;14.57;;;-1.40;99.90;;;;;;4155234;28;20053;-79
2023/01/21 03:08:29;;;;;;;40.05;14.45;;;-1.30;99.90;;;;;;4183513;28;20094;-79
2023/01/21 03:10:55;;;;;;;33.47;13.45;;;-1.40;99.90;;;;;;4196009;28;20040;-80
2023/01/21 03:18:48;;;;;;;40.63;13.80;;;-1.30;99.90;;;;;;4179575;28;20060;-79
2023/01/21 03:20:57;;;;;;;41.00;14.43;;;-1.50;99.90;;;;;;4187720;28;20056;-79
2023/01/21 03:23:19;;;;;;;39.97;14.10;;;-1.40;99.90;;;;;;4192834;28;20045;-79
2023/01/21 03:25:25;;;;;;;35.67;12.68;;;-1.30;99.90;;;;;;4171482;28;20085;-79
2023/01/21 03:27:30;;;;;;;35.03;13.73;;;-1.40;99.90;;;;;;4195111;28;20075;-79
2023/01/21 03:29:34;;;;;;;41.63;15.13;;;-1.50;99.90;;;;;;4177102;28;20049;-78
2023/01/21 03:31:39;;;;;;;44.63;16.05;;;-2.00;99.90;;;;;;4193682;28;20080;-79
2023/01/21 03:33:47;;;;;;;41.03;14.18;;;-1.50;99.90;;;;;;4194614;28;20053;-79
2023/01/21 03:36:00;;;;;;;42.00;14.68;;;-1.40;99.90;;;;;;4173497;28;20052;-80
2023/01/21 03:38:22;;;;;;;42.65;15.43;;;-1.20;99.90;;;;;;4195013;28;20870;-79
2023/01/21 03:40:35;;;;;;;42.42;15.20;;;-1.20;99.90;;;;;;4179445;28;20048;-80
2023/01/21 03:42:38;;;;;;;51.05;17.55;;;-1.80;99.90;;;;;;4181727;28;20106;-79
2023/01/21 03:44:40;;;;;;;36.35;15.38;;;-1.20;99.90;;;;;;4194597;28;20040;-79
2023/01/21 03:46:51;;;;;;;39.10;14.90;;;-1.20;99.90;;;;;;4196062;28;20040;-79
2023/01/21 03:49:05;;;;;;;39.40;15.18;;;-1.20;99.90;;;;;;4177743;28;20053;-79
2023/01/21 03:51:11;;;;;;;45.58;15.48;;;-1.10;99.90;;;;;;4167518;28;20069;-79
2023/01/21 03:53:21;;;;;;;44.00;15.85;;;-1.90;99.90;;;;;;4184527;28;20045;-79
2023/01/21 03:55:22;;;;;;;42.40;16.15;;;-1.10;99.90;;;;;;4177303;28;20111;-79
2023/01/21 03:57:25;;;;;;;44.40;16.00;;;-1.00;99.90;;;;;;4194337;28;20509;-79
2023/01/21 03:59:26;;;;;;;49.17;16.42;;;-2.00;99.90;;;;;;4177088;28;20059;-79
2023/01/21 04:01:28;;;;;;;41.28;15.25;;;-1.00;99.90;;;;;;4184422;28;20089;-79
2023/01/21 04:03:36;;;;;;;46.72;14.98;;;-0.80;99.90;;;;;;4160952;28;20517;-79
2023/01/21 04:05:50;;;;;;;47.55;17.25;;;-0.70;99.90;;;;;;4168800;28;20056;-79
2023/01/21 04:07:52;;;;;;;38.83;15.77;;;0.30;99.90;;;;;;4194577;28;20073;-78
2023/01/21 04:09:59;;;;;;;48.10;15.57;;;-0.90;99.90;;;;;;4183432;28;20046;-79
2023/01/21 04:11:59;;;;;;;44.00;15.20;;;-1.20;99.90;;;;;;4171244;28;20049;-79
2023/01/21 04:14:07;;;;;;;41.60;15.10;;;-0.90;99.90;;;;;;4178822;28;20076;-79
2023/01/21 04:16:08;;;;;;;33.03;14.35;;;-0.70;99.90;;;;;;4189187;28;20037;-79
2023/01/21 04:18:15;;;;;;;41.25;15.57;;;-0.70;99.90;;;;;;4194355;28;20045;-79
2023/01/21 04:20:18;;;;;;;39.85;15.77;;;-0.90;99.90;;;;;;4194424;28;20052;-79
2023/01/21 04:22:19;;;;;;;41.72;16.27;;;-1.40;99.90;;;;;;4176261;28;20057;-79
2023/01/21 04:24:20;;;;;;;37.75;15.32;;;-0.90;99.90;;;;;;4192818;28;20049;-80
2023/01/21 04:26:23;;;;;;;41.80;15.05;;;-0.70;99.90;;;;;;4191950;28;20057;-80
2023/01/21 04:28:25;;;;;;;40.45;16.42;;;-0.80;99.90;;;;;;4182456;28;20154;-82
2023/01/21 04:30:28;;;;;;;43.63;16.88;;;1.10;99.90;;;;;;4187010;28;20405;-81
2023/01/21 04:32:29;;;;;;;37.33;14.23;;;0.70;99.90;;;;;;4190523;28;20045;-81
2023/01/21 04:34:29;;;;;;;38.67;14.95;;;-0.70;99.90;;;;;;4191505;28;20486;-81
2023/01/21 04:36:30;;;;;;;40.80;15.35;;;-0.70;99.90;;;;;;4191418;28;20045;-80
2023/01/21 04:38:31;;;;;;;36.72;16.25;;;-0.80;99.90;;;;;;4191262;28;20045;-80
2023/01/21 04:40:32;;;;;;;38.00;14.95;;;-0.70;99.90;;;;;;4173136;28;20050;-81
2023/01/21 04:42:35;;;;;;;36.78;15.77;;;1.10;99.90;;;;;;4190444;28;20466;-86
2023/01/21 04:44:37;;;;;;;39.30;16.27;;;-2.30;99.90;;;;;;4179560;28;20484;-80
2023/01/21 04:46:40;;;;;;;39.88;15.18;;;-0.50;99.90;;;;;;4186904;28;20049;-80
2023/01/21 04:48:41;;;;;;;36.45;14.50;;;-0.20;99.90;;;;;;4188594;28;20045;-81
2023/01/21 04:50:45;;;;;;;44.17;14.98;;;-1.60;99.90;;;;;;4186409;28;20048;-81
2023/01/21 04:52:52;;;;;;;41.83;15.23;;;-0.60;99.90;;;;;;4188326;28;20076;-81
2023/01/21 04:54:53;;;;;;;37.88;14.70;;;-0.60;99.90;;;;;;4173185;28;20049;-81
2023/01/21 04:56:53;;;;;;;40.20;15.13;;;-0.60;99.90;;;;;;4184485;28;20061;-81
2023/01/21 04:58:56;;;;;;;40.40;15.65;;;-0.30;99.90;;;;;;4171319;28;20516;-81
2023/01/21 05:00:57;;;;;;;40.50;15.27;;;-0.50;99.90;;;;;;4188352;28;20029;-81
2023/01/21 05:02:58;;;;;;;40.30;15.98;;;-0.50;99.90;;;;;;4188232;28;20044;-81
2023/01/21 05:04:59;;;;;;;36.78;15.70;;;-1.30;99.90;;;;;;4175489;28;20037;-81
2023/01/21 05:07:05;;;;;;;40.13;15.32;;;-1.70;99.90;;;;;;4186758;28;20071;-81
2023/01/21 05:09:06;;;;;;;38.58;14.90;;;-0.60;99.90;;;;;;4194340;28;20051;-81
2023/01/21 05:11:09;;;;;;;38.40;15.45;;;-0.60;99.90;;;;;;4193845;28;20073;-81
2023/01/21 05:13:11;;;;;;;39.13;15.55;;;-0.60;99.90;;;;;;4194040;28;20037;-81
2023/01/21 05:15:12;;;;;;;34.80;13.88;;;-0.50;99.90;;;;;;4193612;28;20044;-81
2023/01/21 05:17:13;;;;;;;35.75;14.73;;;-0.70;99.90;;;;;;4193642;28;20037;-81
2023/01/21 05:19:14;;;;;;;39.05;14.57;;;-0.70;99.90;;;;;;4193744;28;20048;-79
2023/01/21 05:21:15;;;;;;;43.45;15.43;;;0.80;99.90;;;;;;4194396;28;20509;-79
2023/01/21 05:23:16;;;;;;;37.97;14.98;;;0.90;99.90;;;;;;4180374;28;20049;-79
2023/01/21 05:25:17;;;;;;;38.65;15.30;;;-0.80;99.90;;;;;;4191013;28;20076;-80
2023/01/21 05:27:26;;;;;;;37.33;14.90;;;-0.70;99.90;;;;;;4194485;28;20048;-80
2023/01/21 05:29:27;;;;;;;37.25;14.52;;;-0.80;99.90;;;;;;4177199;28;20049;-80
2023/01/21 05:31:29;;;;;;;38.38;15.15;;;-0.80;99.90;;;;;;4194358;28;20041;-80
2023/01/21 05:33:35;;;;;;;33.78;14.10;;;-0.90;99.90;;;;;;4194704;28;20044;-80
2023/01/21 05:35:42;;;;;;;34.67;13.75;;;-0.90;99.90;;;;;;4177314;28;20049;-80
2023/01/21 05:37:50;;;;;;;35.15;14.25;;;0.60;99.90;;;;;;4177291;28;20049;-80
2023/01/21 05:39:52;;;;;;;40.15;14.27;;;-2.00;99.90;;;;;;4194043;28;20405;-80
2023/01/21 05:41:53;;;;;;;35.88;13.70;;;0.80;99.90;;;;;;4194331;28;20052;-80
2023/01/21 05:43:54;;;;;;;40.42;14.85;;;-1.20;99.90;;;;;;4193393;28;20053;-80
2023/01/21 05:45:56;;;;;;;40.15;15.32;;;-1.10;99.90;;;;;;4193740;28;20049;-80
2023/01/21 05:47:58;;;;;;;33.97;13.95;;;-1.20;99.90;;;;;;4176825;28;20057;-80
2023/01/21 05:50:02;;;;;;;38.40;15.73;;;-0.70;99.90;;;;;;4195015;28;20408;-79
2023/01/21 05:52:04;;;;;;;36.65;13.93;;;-1.20;99.90;;;;;;4176873;28;20125;-81
2023/01/21 05:54:07;;;;;;;38.30;14.60;;;-1.20;99.90;;;;;;4194505;28;20049;-80
2023/01/21 05:56:09;;;;;;;37.03;13.85;;;-1.30;99.90;;;;;;4178271;28;20100;-80
2023/01/21 05:58:12;;;;;;;32.70;12.73;;;-1.20;99.90;;;;;;4193907;28;20082;-80
2023/01/21 06:00:14;;;;;;;33.83;12.43;;;-1.50;99.90;;;;;;4166466;28;20065;-81
2023/01/21 06:02:21;;;;;;;35.95;13.52;;;-1.40;99.90;;;;;;4178721;28;20072;-81
2023/01/21 06:04:31;;;;;;;35.38;13.65;;;-1.50;99.90;;;;;;4160851;28;20473;-81
2023/01/21 06:06:31;;;;;;;33.88;13.18;;;-1.50;99.90;;;;;;4163112;28;20057;-80
2023/01/21 06:08:32;;;;;;;35.65;12.48;;;-0.40;99.90;;;;;;4176660;28;20049;-80
2023/01/21 06:10:33;;;;;;;34.80;13.45;;;-1.40;99.90;;;;;;4171365;28;20087;-81
2023/01/21 06:12:41;;;;;;;41.78;15.52;;;0.30;99.90;;;;;;4164371;28;20172;-80
2023/01/21 06:14:51;;;;;;;40.40;13.50;;;-1.60;99.90;;;;;;4182343;28;20068;-79
2023/01/21 06:16:52;;;;;;;36.03;14.88;;;-0.50;99.90;;;;;;4202670;28;20071;-79
2023/01/21 06:19:09;;;;;;;34.88;13.05;;;-1.60;99.90;;;;;;4179312;28;20057;-80
2023/01/21 06:21:11;;;;;;;34.22;13.68;;;0.10;99.90;;;;;;4193959;28;20048;-80
2023/01/21 06:23:12;;;;;;;36.28;13.82;;;-1.60;99.90;;;;;;4177442;28;20041;-80
2023/01/21 06:25:13;;;;;;;33.95;13.00;;;-1.50;99.90;;;;;;4194220;28;20041;-80
2023/01/21 06:27:15;;;;;;;34.88;13.80;;;-1.60;99.90;;;;;;4174684;28;20049;-82
2023/01/21 06:29:22;;;;;;;35.28;14.35;;;-1.70;99.90;;;;;;4193019;28;20052;-81
2023/01/21 06:31:23;;;;;;;36.20;13.25;;;-1.80;99.90;;;;;;4192285;28;20068;-81
2023/01/21 06:33:26;;;;;;;33.97;13.63;;;-0.30;99.90;;;;;;4192710;28;20565;-81
2023/01/21 06:35:29;;;;;;;39.58;14.93;;;-2.00;99.90;;;;;;4192986;28;20490;-81
2023/01/21 06:37:32;;;;;;;34.90;13.55;;;-2.50;99.90;;;;;;4194549;28;20493;-81
2023/01/21 06:39:34;;;;;;;33.63;12.93;;;-1.70;99.90;;;;;;4192998;28;20128;-81
2023/01/21 06:41:37;;;;;;;38.45;14.40;;;-1.70;99.90;;;;;;4191231;28;20152;-82
2023/01/21 06:43:43;;;;;;;40.17;14.38;;;-1.00;99.90;;;;;;4175097;28;20087;-82
2023/01/21 06:45:45;;;;;;;37.85;13.43;;;-2.10;99.90;;;;;;4180656;28;20072;-80
2023/01/21 06:47:47;;;;;;;37.72;14.18;;;0.10;99.90;;;;;;4174858;28;20406;-82
2023/01/21 06:49:49;;;;;;;35.80;13.70;;;-1.70;99.90;;;;;;4176625;28;20132;-80
2023/01/21 06:51:51;;;;;;;37.88;14.52;;;-2.00;99.90;;;;;;4175673;28;20041;-81
2023/01/21 06:53:52;;;;;;;39.97;13.40;;;-0.10;99.90;;;;;;4176094;28;20053;-82
2023/01/21 06:55:53;;;;;;;37.67;14.85;;;-0.20;99.90;;;;;;4157468;28;20101;-81
2023/01/21 06:57:56;;;;;;;39.72;14.02;;;-0.80;99.90;;;;;;4175182;28;20053;-81
2023/01/21 06:59:58;;;;;;;39.95;14.80;;;-1.10;99.90;;;;;;4174976;28;20029;-81
2023/01/21 07:02:00;;;;;;;42.95;15.40;;;-2.70;99.90;;;;;;4175078;28;20054;-81
2023/01/21 07:04:03;;;;;;;37.60;13.75;;;-1.90;99.90;;;;;;4165401;28;20049;-81
2023/01/21 07:06:05;;;;;;;38.95;14.45;;;-0.50;99.90;;;;;;4192934;28;20049;-82
2023/01/21 07:08:07;;;;;;;45.15;13.95;;;-1.70;99.90;;;;;;4176073;28;20049;-82
2023/01/21 07:10:09;;;;;;;33.08;13.30;;;-1.80;99.90;;;;;;4165138;28;20042;-82
2023/01/21 07:12:09;;;;;;;35.88;13.15;;;-1.80;99.90;;;;;;4175369;28;20037;-81
2023/01/21 07:14:10;;;;;;;38.72;13.63;;;-1.80;99.90;;;;;;4175103;28;20049;-81
2023/01/21 07:16:12;;;;;;;36.45;14.00;;;-3.00;99.90;;;;;;4176310;28;20424;-80
2023/01/21 07:18:20;;;;;;;38.15;14.05;;;-0.20;99.90;;;;;;4158833;28;20060;-81
2023/01/21 07:20:23;;;;;;;32.67;12.88;;;-1.80;99.90;;;;;;4176770;28;20077;-82
2023/01/21 07:22:25;;;;;;;32.38;12.70;;;-1.40;99.90;;;;;;4158061;28;20088;-81
2023/01/21 07:24:29;;;;;;;36.33;12.52;;;-1.90;99.90;;;;;;4176184;28;20038;-81
2023/01/21 07:26:34;;;;;;;33.78;13.98;;;-2.00;99.90;;;;;;4182730;28;20037;-81
2023/01/21 07:28:37;;;;;;;35.75;13.30;;;-0.10;99.90;;;;;;4178305;28;20049;-81
2023/01/21 07:30:39;;;;;;;35.83;13.45;;;-2.00;99.90;;;;;;4177990;28;20045;-81
2023/01/21 07:32:49;;;;;;;34.30;14.95;;;-1.90;99.90;;;;;;4169297;28;20413;-81
2023/01/21 07:34:58;;;;;;;42.50;15.40;;;-2.00;99.90;;;;;;4210856;28;20102;-82
2023/01/21 07:37:01;;;;;;;37.25;15.07;;;-1.90;99.90;;;;;;4177585;28;20045;-81
2023/01/21 07:39:03;;;;;;;39.42;15.13;;;-1.90;99.90;;;;;;4195469;28;20052;-81
2023/01/21 07:41:13;;;;;;;43.72;15.10;;;-2.00;99.90;;;;;;4177815;28;20060;-81
2023/01/21 07:43:21;;;;;;;33.17;13.52;;;-1.80;99.90;;;;;;4195385;28;20055;-81
2023/01/21 07:45:25;;;;;;;34.77;14.27;;;-1.70;99.90;;;;;;4178209;28;20050;-81
2023/01/21 07:47:29;;;;;;;34.92;13.25;;;-1.80;99.90;;;;;;4196696;28;20041;-82
2023/01/21 07:49:31;;;;;;;35.38;14.20;;;-0.70;99.90;;;;;;4178424;28;20041;-81
2023/01/21 07:51:34;;;;;;;38.85;13.52;;;-1.90;99.90;;;;;;4194123;28;20056;-81
2023/01/21 07:53:35;;;;;;;36.10;14.68;;;-1.80;99.90;;;;;;4165074;28;20052;-81
2023/01/21 07:55:36;;;;;;;36.72;13.25;;;-0.90;99.90;;;;;;4175777;28;20076;-81
2023/01/21 07:57:44;;;;;;;39.88;14.10;;;-1.90;99.90;;;;;;4193210;28;20049;-80
2023/01/21 07:59:47;;;;;;;35.30;14.30;;;-1.90;99.90;;;;;;4177902;28;20045;-81
2023/01/21 08:01:54;;;;;;;33.38;13.23;;;-0.10;99.90;;;;;;4175066;28;20077;-81
2023/01/21 08:04:01;;;;;;;39.20;15.15;;;-1.80;99.90;;;;;;4176315;28;20049;-82
2023/01/21 08:06:02;;;;;;;41.35;16.30;;;-1.70;99.90;;;;;;4176512;28;20049;-82
2023/01/21 08:08:06;;;;;;;43.80;16.73;;;-1.50;99.90;;;;;;4158200;28;20057;-81
2023/01/21 08:10:08;;;;;;;33.22;14.20;;;-2.30;99.90;;;;;;4174151;28;20041;-82
2023/01/21 08:12:15;;;;;;;41.22;14.85;;;-1.80;99.90;;;;;;4158507;28;20042;-81
2023/01/21 08:14:17;;;;;;;44.45;16.40;;;-1.80;99.90;;;;;;4158624;28;20050;-82
2023/01/21 08:16:26;;;;;;;39.80;14.52;;;-1.80;99.90;;;;;;4157913;28;20072;-82
2023/01/21 08:18:33;;;;;;;37.30;15.03;;;-1.70;99.90;;;;;;4174695;28;20461;-81
2023/01/21 08:20:35;;;;;;;37.13;14.48;;;-1.50;99.90;;;;;;4181903;28;20285;-81
2023/01/21 08:22:42;;;;;;;35.97;12.63;;;-1.20;99.90;;;;;;4192556;28;20049;-81
2023/01/21 08:24:44;;;;;;;34.05;13.50;;;-1.00;99.90;;;;;;4191874;28;20417;-81
2023/01/21 08:26:50;;;;;;;32.75;14.05;;;-1.80;99.90;;;;;;4190660;28;20045;-81
2023/01/21 08:28:57;;;;;;;35.17;13.38;;;0.10;99.90;;;;;;4190732;28;20198;-81
2023/01/21 08:31:07;;;;;;;38.92;13.38;;;-1.60;99.90;;;;;;4190649;28;20055;-81
2023/01/21 08:33:08;;;;;;;34.92;12.82;;;-1.50;99.90;;;;;;4174160;28;20049;-81
2023/01/21 08:35:09;;;;;;;38.47;14.07;;;-1.60;99.90;;;;;;4191610;28;20516;-81
2023/01/21 08:37:14;;;;;;;39.28;14.73;;;0.60;99.90;;;;;;4190631;28;20048;-82
2023/01/21 08:39:16;;;;;;;32.72;14.02;;;-0.90;99.90;;;;;;4182680;28;20049;-82
2023/01/21 08:41:18;;;;;;;36.30;14.70;;;-1.40;99.90;;;;;;4174629;28;20049;-82
2023/01/21 08:43:20;;;;;;;39.97;15.23;;;-1.10;99.90;;;;;;4154653;28;20050;-82
2023/01/21 08:45:23;;;;;;;39.85;13.80;;;-1.20;99.90;;;;;;4172129;28;20047;-82
2023/01/21 08:47:24;;;;;;;39.70;15.45;;;-2.40;99.90;;;;;;4155566;28;20096;-81
2023/01/21 08:49:28;;;;;;;39.22;15.90;;;-0.90;99.90;;;;;;4154998;28;20046;-82
2023/01/21 08:51:31;;;;;;;41.05;15.93;;;-0.70;99.90;;;;;;4171524;28;20045;-82
2023/01/21 08:53:32;;;;;;;36.33;14.45;;;1.60;99.90;;;;;;4153120;28;20510;-80
2023/01/21 08:55:33;;;;;;;35.10;14.75;;;0.30;99.90;;;;;;4154794;28;20070;-82
2023/01/21 08:57:34;;;;;;;37.92;15.50;;;0.70;99.90;;;;;;4184922;28;20053;-82
2023/01/21 08:59:35;;;;;;;32.50;14.73;;;1.20;99.90;;;;;;4182222;28;20116;-82
2023/01/21 09:01:39;;;;;;;34.35;13.60;;;3.10;99.90;;;;;;4183684;28;20075;-82
2023/01/21 09:03:40;;;;;;;34.08;14.60;;;0.80;99.90;;;;;;4181292;28;20091;-82
2023/01/21 09:05:41;;;;;;;32.38;13.35;;;2.00;99.90;;;;;;4181245;28;20421;-81
2023/01/21 09:07:43;;;;;;;35.92;12.57;;;2.50;99.90;;;;;;4164492;28;20052;-81
2023/01/21 09:09:44;;;;;;;33.60;14.48;;;1.50;99.90;;;;;;4165076;28;20081;-81
2023/01/21 09:11:44;;;;;;;32.03;13.35;;;1.60;99.90;;;;;;4183266;28;20045;-81
2023/01/21 09:13:46;;;;;;;32.67;13.90;;;2.40;99.90;;;;;;4173045;28;20071;-81
2023/01/21 09:15:47;;;;;;;30.67;12.73;;;0.80;99.90;;;;;;4183061;28;20053;-82
2023/01/21 09:17:48;;;;;;;32.63;12.43;;;0.80;99.90;;;;;;4183148;28;20452;-82
2023/01/21 09:19:49;;;;;;;31.73;14.40;;;0.50;99.90;;;;;;4166748;28;20441;-82
2023/01/21 09:21:54;;;;;;;29.05;13.02;;;0.50;99.90;;;;;;4183849;28;20041;-81
2023/01/21 09:23:56;;;;;;;31.05;12.10;;;0.40;99.90;;;;;;4184481;28;20076;-82
2023/01/21 09:26:05;;;;;;;35.97;13.02;;;0.60;99.90;;;;;;4184747;28;20052;-81
2023/01/21 09:28:07;;;;;;;31.33;12.93;;;1.50;99.90;;;;;;4184373;28;20397;-81
2023/01/21 09:30:08;;;;;;;33.28;13.32;;;-0.30;99.90;;;;;;4183893;28;20045;-81
2023/01/21 09:32:09;;;;;;;30.58;13.35;;;0.10;99.90;;;;;;4185180;28;20102;-81
2023/01/21 09:34:11;;;;;;;34.80;13.63;;;0.10;99.90;;;;;;4166720;28;20046;-81
2023/01/21 09:36:20;;;;;;;33.38;13.25;;;1.60;99.90;;;;;;4183165;28;20124;-81
2023/01/21 09:38:22;;;;;;;33.17;13.75;;;0.00;99.90;;;;;;4184828;28;20095;-81
2023/01/21 09:40:23;;;;;;;33.10;12.38;;;-0.70;99.90;;;;;;4183792;28;20196;-81
2023/01/21 09:42:28;;;;;;;31.83;12.43;;;0.70;99.90;;;;;;4167139;28;20100;-81
2023/01/21 09:44:42;;;;;;;35.30;13.88;;;1.40;99.90;;;;;;4183323;28;20122;-81
2023/01/21 09:46:59;;;;;;;32.97;12.60;;;0.70;99.90;;;;;;4185082;28;20041;-81
2023/01/21 09:49:04;;;;;;;27.98;11.52;;;0.50;99.90;;;;;;4169386;28;20053;-81
2023/01/21 09:51:16;;;;;;;35.63;13.50;;;2.60;99.90;;;;;;4167965;28;20038;-81
2023/01/21 09:53:30;;;;;;;26.73;10.63;;;2.90;99.90;;;;;;4165198;28;20477;-82
2023/01/21 09:55:46;;;;;;;27.52;12.30;;;4.30;99.90;;;;;;4148447;28;20069;-82
2023/01/21 09:58:05;;;;;;;28.02;12.20;;;5.10;99.90;;;;;;4169957;28;20041;-80
2023/01/21 10:00:26;;;;;;;28.70;13.02;;;5.90;99.90;;;;;;4170293;28;20053;-81
2023/01/21 10:02:43;;;;;;;33.38;13.23;;;6.30;99.90;;;;;;4154844;28;20056;-81
2023/01/21 10:05:21;;;;;;;31.70;12.77;;;6.80;99.90;;;;;;4166962;28;20072;-81
2023/01/21 10:07:31;;;;;;;29.23;11.68;;;7.10;99.90;;;;;;4144255;28;20136;-81
2023/01/21 10:09:47;;;;;;;29.00;12.13;;;7.50;99.90;;;;;;4184028;28;20494;-81
2023/01/21 10:12:16;;;;;;;29.52;11.82;;;7.30;99.90;;;;;;4183221;28;20041;-81
2023/01/21 10:14:34;;;;;;;29.73;12.48;;;7.30;99.90;;;;;;4183077;28;20041;-81
2023/01/21 10:16:58;;;;;;;31.10;13.52;;;7.10;99.90;;;;;;4181903;28;20060;-81
2023/01/21 10:19:01;;;;;;;27.83;11.13;;;6.80;99.90;;;;;;4182418;28;20486;-82
2023/01/21 10:21:05;;;;;;;27.80;12.43;;;6.60;99.90;;;;;;4182590;28;20081;-81
2023/01/21 10:23:17;;;;;;;27.02;11.15;;;6.50;99.90;;;;;;4182615;28;20539;-81
2023/01/21 10:25:32;;;;;;;23.58;10.85;;;6.40;99.90;;;;;;4179008;28;20102;-82
2023/01/21 10:27:36;;;;;;;26.88;11.10;;;6.60;99.90;;;;;;4165591;28;20045;-82
2023/01/21 10:29:40;;;;;;;23.58;11.25;;;6.80;99.90;;;;;;4165421;28;20045;-82
2023/01/21 10:31:58;;;;;;;22.13;10.63;;;7.10;99.90;;;;;;4167030;28;20510;-82
2023/01/21 10:33:58;;;;;;;23.20;11.00;;;7.40;99.90;;;;;;4167703;28;20127;-82
2023/01/21 10:36:25;;;;;;;24.75;11.35;;;7.60;99.90;;;;;;4181328;28;20045;-81
2023/01/21 10:39:06;;;;;;;22.60;11.00;;;7.80;99.90;;;;;;4184312;28;20083;-82
2023/01/21 10:41:36;;;;;;;25.63;10.38;;;8.00;99.90;;;;;;4161179;28;20429;-81
2023/01/21 10:43:55;;;;;;;21.33;10.30;;;8.30;99.90;;;;;;4178517;28;20125;-81
2023/01/21 10:46:13;;;;;;;18.70;9.75;;;8.40;99.90;;;;;;4167950;28;20057;-82
2023/01/21 10:48:51;;;;;;;17.02;8.73;;;8.50;99.90;;;;;;4177178;28;20052;-81
2023/01/21 10:51:25;;;;;;;18.20;8.37;;;8.60;99.90;;;;;;4182977;28;20067;-81